Aérodrome :
LOGIN :

S'inscrire | Disclaimer

   EN    FR    IT 

 










Légende :    VFR   VFR Marginal   IFR   IFR Intensif   IFR Très Intensif
Visi : 
Plafond : 
>= 8 km
>= 3000ft
5 à 8 km
1000 à 3000 ft
1500m à 5 km
500 à 1000 ft
800 à 1500m
200 à 500 ft
< 800m
< 200 ft
Symboles :   Orages  Brouillard  Fortes neiges  Fortes précipitations  Vent > 20 kt
SIGMETs :   Divers  Orages  Givrage  Turbulence  Onde Orograph.  Cendres Volcan.







- Altitude de l'aérodrome : 461 ft
- Code IATA : WIE


ETOU - Wiesbaden Army

DERNIER METAR :
  • 242056Z AUTO 29004KT 9999 CLR 06/00 A3023 RMK AO2 SLP242 T00621005 50001 $

METARs EXPIRÉS :
  • 241956Z AUTO 00000KT 9999 CLR 08/02 A3023 RMK AO2 SLP242 T00760017 $
  • 241756Z AUTO 26004KT 9999 FEW037 10/03 A3023 RMK AO2 SLP242 T00990034 10142 20099 50001 $

TAF TAF ETOU
Valide du 24 à 12h jusqu'au 25 à 18h UTC


241209Z 2412/2518 35009KT 9999 SCT030 QNH3022INS
BECMG 2418/2419 VRB06KT 9999 SCT030 QNH3019INS
BECMG 2505/2506 30009KT 9999 SCT040 QNH3017INS
BECMG 2511/2512 31015G25KT 9999 BKN030 QNH3014INS TX18/2415Z TN01/2504Z LAST NO AMDS AFT 2412 NEXT 2504
Pas de NOTAMs connus pour ce terrain.



MET'MAP, la Météo Aéronautique d'un coup d'oeil ! - Copyright ORBIFLY Décembre 2007 - Disclaimer

ORBIFLY MET'MAP TEAM :

Programmation & Développement : Alexandra Zaïnal
Conception & Développement : Baudouin d'Aumeries
Co-Programmation & Développement : Marc-Olivier Méhu
Soutien technique & logistique : Manuel Goepfert

Contact : metmap@orbifly.com




SOURCES & CREDITS :

   NOAA